Valentine, Texas
Current Conditions -  °F | °C
As of 5:15 PM on Saturday 25 Oct 2014 (Local Time) from KMRF Reporting Station
Clear Clear  
Wind Chill: 79°   Ceiling: Unl
Heat Index: 79°   Visibility: 10mi
Dew Point: 43°   Wind: 7mph
Humidity: 28%   Direction: 250°WSW
Pressure: 30.24"   Gusts: NA
Location:  30.59°N, 104.5°W
Report Text: KMRF 252215Z AUTO 25006KT 10SM CLR 26/06 A3024 RMK AO1
Loading
Personal Weather Stations






























Interactive Weather Map
Tropical Storm Tracking
New forecast layout! Learn more

10-Day Weather Forecast

Advertisements
Track Severe Weather on mobile